Severn, North Carolina
Current Conditions -  °F | °C
As of 10:35 AM on Sunday 21 Dec 2014 (Local Time) from KASJ Reporting Station
Overcast Overcast  
Wind Chill: 36°   Ceiling: 7000
Heat Index: 39°   Visibility: 10mi
Dew Point: 28°   Wind: 5mph
Humidity: 63%   Direction: 30°NNE
Pressure: 30.35"   Gusts: NA
Location:  36.52°N, 77.19°W
Report Text: KASJ 211535Z AUTO 03004KT 10SM OVC070 04/M02 A3035 RMK AO2 T00401024
Loading
Personal Weather Stations






























Interactive Weather Map New forecast layout! Learn more

10-Day Weather Forecast

Advertisements
Track Severe Weather on mobile